sensor_id;sensor_type;location;lat;lon;timestamp;temperature;humidity
33109;HTU21D;19481;51.118;6.940;2023-02-11T00:00:58;6.41;62.70
33109;HTU21D;19481;51.118;6.940;2023-02-11T00:06:04;6.40;62.44
33109;HTU21D;19481;51.118;6.940;2023-02-11T00:11:11;6.39;62.47
33109;HTU21D;19481;51.118;6.940;2023-02-11T00:16:15;6.30;62.65
33109;HTU21D;19481;51.118;6.940;2023-02-11T00:21:20;6.27;62.64
33109;HTU21D;19481;51.118;6.940;2023-02-11T00:26:23;6.22;62.73
33109;HTU21D;19481;51.118;6.940;2023-02-11T00:31:27;6.28;62.74
33109;HTU21D;19481;51.118;6.940;2023-02-11T00:36:30;6.31;62.57
33109;HTU21D;19481;51.118;6.940;2023-02-11T00:41:32;6.37;62.61
33109;HTU21D;19481;51.118;6.940;2023-02-11T00:46:33;6.41;62.49
33109;HTU21D;19481;51.118;6.940;2023-02-11T00:51:36;6.50;62.33
33109;HTU21D;19481;51.118;6.940;2023-02-11T00:56:38;6.54;62.33
33109;HTU21D;19481;51.118;6.940;2023-02-11T01:01:39;6.57;62.41
33109;HTU21D;19481;51.118;6.940;2023-02-11T01:06:42;6.57;62.42
33109;HTU21D;19481;51.118;6.940;2023-02-11T01:11:44;6.52;62.63
33109;HTU21D;19481;51.118;6.940;2023-02-11T01:16:45;6.54;62.62
33109;HTU21D;19481;51.118;6.940;2023-02-11T01:21:48;6.50;62.66
33109;HTU21D;19481;51.118;6.940;2023-02-11T01:26:50;6.44;62.90
33109;HTU21D;19481;51.118;6.940;2023-02-11T01:31:51;6.42;62.93
33109;HTU21D;19481;51.118;6.940;2023-02-11T01:36:57;6.41;62.86
33109;HTU21D;19481;51.118;6.940;2023-02-11T01:41:59;6.45;63.08
33109;HTU21D;19481;51.118;6.940;2023-02-11T01:47:01;6.49;63.23
33109;HTU21D;19481;51.118;6.940;2023-02-11T01:52:08;6.44;63.48
33109;HTU21D;19481;51.118;6.940;2023-02-11T01:57:13;6.38;63.17
33109;HTU21D;19481;51.118;6.940;2023-02-11T02:02:29;6.31;63.37
33109;HTU21D;19481;51.118;6.940;2023-02-11T02:07:38;6.21;63.95
33109;HTU21D;19481;51.118;6.940;2023-02-11T02:12:42;6.16;63.82
33109;HTU21D;19481;51.118;6.940;2023-02-11T02:17:51;6.08;63.85
33109;HTU21D;19481;51.118;6.940;2023-02-11T02:23:30;6.10;64.37
33109;HTU21D;19481;51.118;6.940;2023-02-11T02:34:11;6.25;63.53
33109;HTU21D;19481;51.118;6.940;2023-02-11T02:39:20;6.35;63.23
33109;HTU21D;19481;51.118;6.940;2023-02-11T02:44:23;6.39;63.50
33109;HTU21D;19481;51.118;6.940;2023-02-11T02:49:26;6.41;63.29
33109;HTU21D;19481;51.118;6.940;2023-02-11T03:00:23;6.53;63.33
33109;HTU21D;19481;51.118;6.940;2023-02-11T03:05:33;6.55;64.76
33109;HTU21D;19481;51.118;6.940;2023-02-11T03:10:42;6.57;63.38
33109;HTU21D;19481;51.118;6.940;2023-02-11T03:15:47;6.65;63.05
33109;HTU21D;19481;51.118;6.940;2023-02-11T03:20:53;6.64;63.15
33109;HTU21D;19481;51.118;6.940;2023-02-11T03:25:57;6.66;63.41
33109;HTU21D;19481;51.118;6.940;2023-02-11T03:31:08;6.67;63.76
33109;HTU21D;19481;51.118;6.940;2023-02-11T03:36:17;6.68;63.44
33109;HTU21D;19481;51.118;6.940;2023-02-11T03:41:22;6.61;63.80
33109;HTU21D;19481;51.118;6.940;2023-02-11T03:46:33;6.66;63.65
33109;HTU21D;19481;51.118;6.940;2023-02-11T03:51:37;6.66;63.75
33109;HTU21D;19481;51.118;6.940;2023-02-11T03:56:46;6.69;63.53
33109;HTU21D;19481;51.118;6.940;2023-02-11T04:01:49;6.73;63.58
33109;HTU21D;19481;51.118;6.940;2023-02-11T04:06:52;6.65;64.07
33109;HTU21D;19481;51.118;6.940;2023-02-11T04:11:54;6.65;63.96
33109;HTU21D;19481;51.118;6.940;2023-02-11T04:16:55;6.59;64.82
33109;HTU21D;19481;51.118;6.940;2023-02-11T04:21:58;6.60;64.40
33109;HTU21D;19481;51.118;6.940;2023-02-11T04:27:00;6.52;64.79
33109;HTU21D;19481;51.118;6.940;2023-02-11T04:32:01;6.53;64.85
33109;HTU21D;19481;51.118;6.940;2023-02-11T04:37:04;6.56;64.57
33109;HTU21D;19481;51.118;6.940;2023-02-11T04:42:06;6.57;64.98
33109;HTU21D;19481;51.118;6.940;2023-02-11T04:47:08;6.59;64.60
33109;HTU21D;19481;51.118;6.940;2023-02-11T04:52:13;6.61;65.01
33109;HTU21D;19481;51.118;6.940;2023-02-11T04:57:14;6.65;64.70
33109;HTU21D;19481;51.118;6.940;2023-02-11T05:02:16;6.69;64.53
33109;HTU21D;19481;51.118;6.940;2023-02-11T05:07:19;6.69;64.48
33109;HTU21D;19481;51.118;6.940;2023-02-11T05:12:21;6.63;68.53
33109;HTU21D;19481;51.118;6.940;2023-02-11T05:17:22;6.58;65.38
33109;HTU21D;19481;51.118;6.940;2023-02-11T05:22:25;6.56;65.53
33109;HTU21D;19481;51.118;6.940;2023-02-11T05:27:27;6.51;65.75
33109;HTU21D;19481;51.118;6.940;2023-02-11T05:32:29;6.58;65.28
33109;HTU21D;19481;51.118;6.940;2023-02-11T05:37:31;6.60;65.17
33109;HTU21D;19481;51.118;6.940;2023-02-11T05:42:33;6.59;65.46
33109;HTU21D;19481;51.118;6.940;2023-02-11T05:47:35;6.63;65.23
33109;HTU21D;19481;51.118;6.940;2023-02-11T05:52:38;6.64;65.27
33109;HTU21D;19481;51.118;6.940;2023-02-11T05:57:39;6.66;65.39
33109;HTU21D;19481;51.118;6.940;2023-02-11T06:02:41;6.65;65.90
33109;HTU21D;19481;51.118;6.940;2023-02-11T06:07:44;6.67;65.68
33109;HTU21D;19481;51.118;6.940;2023-02-11T06:12:46;6.63;66.22
33109;HTU21D;19481;51.118;6.940;2023-02-11T06:17:48;6.59;66.45
33109;HTU21D;19481;51.118;6.940;2023-02-11T06:22:51;6.55;66.70
33109;HTU21D;19481;51.118;6.940;2023-02-11T06:27:52;6.58;66.46
33109;HTU21D;19481;51.118;6.940;2023-02-11T06:32:54;6.63;66.33
33109;HTU21D;19481;51.118;6.940;2023-02-11T06:37:57;6.54;66.54
33109;HTU21D;19481;51.118;6.940;2023-02-11T06:42:58;6.56;66.85
33109;HTU21D;19481;51.118;6.940;2023-02-11T06:48:00;6.57;67.03
33109;HTU21D;19481;51.118;6.940;2023-02-11T06:53:03;6.54;66.96
33109;HTU21D;19481;51.118;6.940;2023-02-11T06:58:04;6.56;67.23
33109;HTU21D;19481;51.118;6.940;2023-02-11T07:03:06;6.54;67.72
33109;HTU21D;19481;51.118;6.940;2023-02-11T07:08:09;6.57;67.27
33109;HTU21D;19481;51.118;6.940;2023-02-11T07:13:10;6.50;68.06
33109;HTU21D;19481;51.118;6.940;2023-02-11T07:18:12;6.48;68.37
33109;HTU21D;19481;51.118;6.940;2023-02-11T07:23:15;6.49;67.86
33109;HTU21D;19481;51.118;6.940;2023-02-11T07:28:16;6.51;68.00
33109;HTU21D;19481;51.118;6.940;2023-02-11T07:33:18;6.53;68.08
33109;HTU21D;19481;51.118;6.940;2023-02-11T07:38:21;6.55;67.66
33109;HTU21D;19481;51.118;6.940;2023-02-11T07:43:22;6.56;68.03
33109;HTU21D;19481;51.118;6.940;2023-02-11T07:48:24;6.55;68.33
33109;HTU21D;19481;51.118;6.940;2023-02-11T07:53:27;6.59;68.14
33109;HTU21D;19481;51.118;6.940;2023-02-11T07:58:29;6.58;68.68
33109;HTU21D;19481;51.118;6.940;2023-02-11T08:03:31;6.58;68.58
33109;HTU21D;19481;51.118;6.940;2023-02-11T08:08:34;6.61;68.17
33109;HTU21D;19481;51.118;6.940;2023-02-11T08:13:37;6.61;68.62
33109;HTU21D;19481;51.118;6.940;2023-02-11T08:18:39;6.65;68.75
33109;HTU21D;19481;51.118;6.940;2023-02-11T08:23:42;6.68;68.71
33109;HTU21D;19481;51.118;6.940;2023-02-11T08:28:45;6.70;68.92
33109;HTU21D;19481;51.118;6.940;2023-02-11T08:33:48;6.73;68.72
33109;HTU21D;19481;51.118;6.940;2023-02-11T08:38:53;6.75;68.68
33109;HTU21D;19481;51.118;6.940;2023-02-11T08:43:54;6.78;68.80
33109;HTU21D;19481;51.118;6.940;2023-02-11T08:48:56;6.83;68.81
33109;HTU21D;19481;51.118;6.940;2023-02-11T08:53:59;6.85;68.75
33109;HTU21D;19481;51.118;6.940;2023-02-11T08:59:01;6.87;69.16
33109;HTU21D;19481;51.118;6.940;2023-02-11T09:04:03;6.94;68.65
33109;HTU21D;19481;51.118;6.940;2023-02-11T09:09:09;6.91;68.90
33109;HTU21D;19481;51.118;6.940;2023-02-11T09:14:15;6.89;69.43
33109;HTU21D;19481;51.118;6.940;2023-02-11T09:19:18;6.99;69.04
33109;HTU21D;19481;51.118;6.940;2023-02-11T09:24:21;7.07;68.69
33109;HTU21D;19481;51.118;6.940;2023-02-11T09:29:23;7.17;68.62
33109;HTU21D;19481;51.118;6.940;2023-02-11T09:34:24;7.24;68.39
33109;HTU21D;19481;51.118;6.940;2023-02-11T09:39:27;7.24;68.51
33109;HTU21D;19481;51.118;6.940;2023-02-11T09:44:32;7.25;69.10
33109;HTU21D;19481;51.118;6.940;2023-02-11T09:49:40;7.34;68.40
33109;HTU21D;19481;51.118;6.940;2023-02-11T09:54:53;7.34;68.64
33109;HTU21D;19481;51.118;6.940;2023-02-11T09:59:55;7.38;68.83
33109;HTU21D;19481;51.118;6.940;2023-02-11T10:05:12;7.41;68.93
33109;HTU21D;19481;51.118;6.940;2023-02-11T10:10:28;7.41;68.85
33109;HTU21D;19481;51.118;6.940;2023-02-11T10:15:41;7.45;69.41
33109;HTU21D;19481;51.118;6.940;2023-02-11T10:20:48;7.48;68.51
33109;HTU21D;19481;51.118;6.940;2023-02-11T10:25:56;7.46;68.83
33109;HTU21D;19481;51.118;6.940;2023-02-11T10:31:00;7.38;70.28
33109;HTU21D;19481;51.118;6.940;2023-02-11T10:36:03;7.47;69.13
33109;HTU21D;19481;51.118;6.940;2023-02-11T10:41:09;7.50;68.75
33109;HTU21D;19481;51.118;6.940;2023-02-11T10:46:16;7.50;68.97
33109;HTU21D;19481;51.118;6.940;2023-02-11T10:51:20;7.57;68.77
33109;HTU21D;19481;51.118;6.940;2023-02-11T10:56:25;7.61;68.65
33109;HTU21D;19481;51.118;6.940;2023-02-11T11:01:44;7.61;70.07
33109;HTU21D;19481;51.118;6.940;2023-02-11T11:06:46;7.61;69.21
33109;HTU21D;19481;51.118;6.940;2023-02-11T11:11:52;7.64;68.75
33109;HTU21D;19481;51.118;6.940;2023-02-11T11:16:54;7.58;69.29
33109;HTU21D;19481;51.118;6.940;2023-02-11T11:21:56;7.58;69.38
33109;HTU21D;19481;51.118;6.940;2023-02-11T11:27:00;7.59;69.45
33109;HTU21D;19481;51.118;6.940;2023-02-11T11:32:05;7.63;69.08
33109;HTU21D;19481;51.118;6.940;2023-02-11T11:37:18;7.60;69.49
33109;HTU21D;19481;51.118;6.940;2023-02-11T11:42:24;7.68;68.90
33109;HTU21D;19481;51.118;6.940;2023-02-11T11:47:32;7.67;69.11
33109;HTU21D;19481;51.118;6.940;2023-02-11T11:52:40;7.65;69.31
33109;HTU21D;19481;51.118;6.940;2023-02-11T11:57:46;7.72;68.98
33109;HTU21D;19481;51.118;6.940;2023-02-11T12:03:21;7.73;69.34
33109;HTU21D;19481;51.118;6.940;2023-02-11T12:08:33;7.81;68.57
33109;HTU21D;19481;51.118;6.940;2023-02-11T12:13:48;7.84;68.63
33109;HTU21D;19481;51.118;6.940;2023-02-11T12:24:43;7.84;69.05
33109;HTU21D;19481;51.118;6.940;2023-02-11T12:29:59;7.92;68.95
33109;HTU21D;19481;51.118;6.940;2023-02-11T12:40:36;7.93;69.00
33109;HTU21D;19481;51.118;6.940;2023-02-11T12:51:20;7.92;69.25
33109;HTU21D;19481;51.118;6.940;2023-02-11T12:56:30;7.89;69.46
33109;HTU21D;19481;51.118;6.940;2023-02-11T13:01:36;7.93;69.24
33109;HTU21D;19481;51.118;6.940;2023-02-11T13:06:43;7.91;69.30
33109;HTU21D;19481;51.118;6.940;2023-02-11T13:11:49;7.96;69.16
33109;HTU21D;19481;51.118;6.940;2023-02-11T13:16:54;7.91;69.68
33109;HTU21D;19481;51.118;6.940;2023-02-11T13:22:06;7.94;69.26
33109;HTU21D;19481;51.118;6.940;2023-02-11T13:27:19;8.06;68.92
33109;HTU21D;19481;51.118;6.940;2023-02-11T13:32:26;8.04;69.30
33109;HTU21D;19481;51.118;6.940;2023-02-11T13:37:48;8.14;69.16
33109;HTU21D;19481;51.118;6.940;2023-02-11T13:42:51;8.20;68.88
33109;HTU21D;19481;51.118;6.940;2023-02-11T13:47:57;8.30;68.71
33109;HTU21D;19481;51.118;6.940;2023-02-11T13:53:02;8.34;68.75
33109;HTU21D;19481;51.118;6.940;2023-02-11T13:58:25;8.35;69.16
33109;HTU21D;19481;51.118;6.940;2023-02-11T14:03:38;8.38;69.07
33109;HTU21D;19481;51.118;6.940;2023-02-11T14:09:00;8.42;68.90
33109;HTU21D;19481;51.118;6.940;2023-02-11T14:14:14;8.50;68.66
33109;HTU21D;19481;51.118;6.940;2023-02-11T14:19:29;8.56;69.46
33109;HTU21D;19481;51.118;6.940;2023-02-11T14:24:50;8.67;68.70
33109;HTU21D;19481;51.118;6.940;2023-02-11T14:35:32;8.62;68.71
33109;HTU21D;19481;51.118;6.940;2023-02-11T14:40:41;8.70;68.53
33109;HTU21D;19481;51.118;6.940;2023-02-11T14:45:50;8.63;69.16
33109;HTU21D;19481;51.118;6.940;2023-02-11T14:50:59;8.66;69.00
33109;HTU21D;19481;51.118;6.940;2023-02-11T14:56:01;8.68;71.96
33109;HTU21D;19481;51.118;6.940;2023-02-11T15:01:04;8.74;68.64
33109;HTU21D;19481;51.118;6.940;2023-02-11T15:06:16;8.80;68.39
33109;HTU21D;19481;51.118;6.940;2023-02-11T15:11:21;8.87;68.25
33109;HTU21D;19481;51.118;6.940;2023-02-11T15:16:25;8.80;68.55
33109;HTU21D;19481;51.118;6.940;2023-02-11T15:21:31;8.82;68.62
33109;HTU21D;19481;51.118;6.940;2023-02-11T15:26:33;8.83;68.65
33109;HTU21D;19481;51.118;6.940;2023-02-11T15:31:34;8.79;68.81
33109;HTU21D;19481;51.118;6.940;2023-02-11T15:36:37;8.80;68.67
33109;HTU21D;19481;51.118;6.940;2023-02-11T15:41:39;8.78;68.78
33109;HTU21D;19481;51.118;6.940;2023-02-11T15:46:41;8.73;68.99
33109;HTU21D;19481;51.118;6.940;2023-02-11T15:51:48;8.77;69.01
33109;HTU21D;19481;51.118;6.940;2023-02-11T15:56:50;8.74;68.98
33109;HTU21D;19481;51.118;6.940;2023-02-11T16:01:55;8.77;68.85
33109;HTU21D;19481;51.118;6.940;2023-02-11T16:06:59;8.77;68.68
33109;HTU21D;19481;51.118;6.940;2023-02-11T16:12:02;8.75;68.85
33109;HTU21D;19481;51.118;6.940;2023-02-11T16:17:08;8.67;69.12
33109;HTU21D;19481;51.118;6.940;2023-02-11T16:22:16;8.64;69.16
33109;HTU21D;19481;51.118;6.940;2023-02-11T16:27:20;8.61;69.45
33109;HTU21D;19481;51.118;6.940;2023-02-11T16:32:24;8.52;69.49
33109;HTU21D;19481;51.118;6.940;2023-02-11T16:37:27;8.48;69.42
33109;HTU21D;19481;51.118;6.940;2023-02-11T16:42:29;8.50;69.38
33109;HTU21D;19481;51.118;6.940;2023-02-11T16:47:31;8.46;69.52
33109;HTU21D;19481;51.118;6.940;2023-02-11T16:52:36;8.42;69.76
33109;HTU21D;19481;51.118;6.940;2023-02-11T16:57:38;8.42;69.71
33109;HTU21D;19481;51.118;6.940;2023-02-11T17:02:40;8.38;69.57
33109;HTU21D;19481;51.118;6.940;2023-02-11T17:07:43;8.38;69.52
33109;HTU21D;19481;51.118;6.940;2023-02-11T17:12:44;8.35;69.70
33109;HTU21D;19481;51.118;6.940;2023-02-11T17:17:47;8.33;69.70
33109;HTU21D;19481;51.118;6.940;2023-02-11T17:22:50;8.36;69.59
33109;HTU21D;19481;51.118;6.940;2023-02-11T17:27:52;8.37;69.66
33109;HTU21D;19481;51.118;6.940;2023-02-11T17:32:53;8.37;69.60
33109;HTU21D;19481;51.118;6.940;2023-02-11T17:37:56;8.37;69.79
33109;HTU21D;19481;51.118;6.940;2023-02-11T17:42:58;8.35;69.84
33109;HTU21D;19481;51.118;6.940;2023-02-11T17:48:00;8.33;69.78
33109;HTU21D;19481;51.118;6.940;2023-02-11T17:53:03;8.39;69.62
33109;HTU21D;19481;51.118;6.940;2023-02-11T17:58:05;8.33;69.84
33109;HTU21D;19481;51.118;6.940;2023-02-11T18:03:07;8.33;69.84
33109;HTU21D;19481;51.118;6.940;2023-02-11T18:08:10;8.33;69.82
33109;HTU21D;19481;51.118;6.940;2023-02-11T18:13:11;8.28;70.13
33109;HTU21D;19481;51.118;6.940;2023-02-11T18:18:13;8.27;70.18
33109;HTU21D;19481;51.118;6.940;2023-02-11T18:23:16;8.26;70.03
33109;HTU21D;19481;51.118;6.940;2023-02-11T18:28:18;8.29;69.92
33109;HTU21D;19481;51.118;6.940;2023-02-11T18:33:20;8.29;70.01
33109;HTU21D;19481;51.118;6.940;2023-02-11T18:38:23;8.33;69.77
33109;HTU21D;19481;51.118;6.940;2023-02-11T18:43:25;8.28;70.26
33109;HTU21D;19481;51.118;6.940;2023-02-11T18:48:30;8.29;70.08
33109;HTU21D;19481;51.118;6.940;2023-02-11T18:53:33;8.26;70.23
33109;HTU21D;19481;51.118;6.940;2023-02-11T18:58:35;8.31;70.18
33109;HTU21D;19481;51.118;6.940;2023-02-11T19:03:37;8.30;70.22
33109;HTU21D;19481;51.118;6.940;2023-02-11T19:08:40;8.30;70.07
33109;HTU21D;19481;51.118;6.940;2023-02-11T19:13:42;8.31;70.10
33109;HTU21D;19481;51.118;6.940;2023-02-11T19:18:44;8.27;70.32
33109;HTU21D;19481;51.118;6.940;2023-02-11T19:23:47;8.18;70.81
33109;HTU21D;19481;51.118;6.940;2023-02-11T19:28:48;8.15;70.90
33109;HTU21D;19481;51.118;6.940;2023-02-11T19:33:50;8.16;70.62
33109;HTU21D;19481;51.118;6.940;2023-02-11T19:38:53;8.24;70.29
33109;HTU21D;19481;51.118;6.940;2023-02-11T19:43:55;8.24;70.40
33109;HTU21D;19481;51.118;6.940;2023-02-11T19:48:58;8.22;70.56
33109;HTU21D;19481;51.118;6.940;2023-02-11T19:54:01;8.22;70.43
33109;HTU21D;19481;51.118;6.940;2023-02-11T19:59:03;8.24;70.48
33109;HTU21D;19481;51.118;6.940;2023-02-11T20:04:08;8.23;70.50
33109;HTU21D;19481;51.118;6.940;2023-02-11T20:09:13;8.19;70.68
33109;HTU21D;19481;51.118;6.940;2023-02-11T20:14:14;8.20;70.74
33109;HTU21D;19481;51.118;6.940;2023-02-11T20:19:18;8.19;70.92
33109;HTU21D;19481;51.118;6.940;2023-02-11T20:24:22;8.20;70.74
33109;HTU21D;19481;51.118;6.940;2023-02-11T20:29:24;8.21;70.73
33109;HTU21D;19481;51.118;6.940;2023-02-11T20:34:26;8.20;70.77
33109;HTU21D;19481;51.118;6.940;2023-02-11T20:39:30;8.17;70.83
33109;HTU21D;19481;51.118;6.940;2023-02-11T20:44:31;8.17;70.93
33109;HTU21D;19481;51.118;6.940;2023-02-11T20:49:35;8.16;71.00
33109;HTU21D;19481;51.118;6.940;2023-02-11T20:54:38;8.13;71.23
33109;HTU21D;19481;51.118;6.940;2023-02-11T20:59:40;8.14;71.19
33109;HTU21D;19481;51.118;6.940;2023-02-11T21:04:42;8.14;71.13
33109;HTU21D;19481;51.118;6.940;2023-02-11T21:09:45;8.11;71.14
33109;HTU21D;19481;51.118;6.940;2023-02-11T21:14:46;8.13;71.19
33109;HTU21D;19481;51.118;6.940;2023-02-11T21:19:48;8.15;71.05
33109;HTU21D;19481;51.118;6.940;2023-02-11T21:24:51;8.13;70.99
33109;HTU21D;19481;51.118;6.940;2023-02-11T21:29:53;8.17;70.96
33109;HTU21D;19481;51.118;6.940;2023-02-11T21:34:55;8.13;71.10
33109;HTU21D;19481;51.118;6.940;2023-02-11T21:39:58;8.12;71.29
33109;HTU21D;19481;51.118;6.940;2023-02-11T21:44:59;8.11;71.28
33109;HTU21D;19481;51.118;6.940;2023-02-11T21:50:01;8.04;71.37
33109;HTU21D;19481;51.118;6.940;2023-02-11T21:55:05;8.15;71.14
33109;HTU21D;19481;51.118;6.940;2023-02-11T22:00:07;8.07;71.16
33109;HTU21D;19481;51.118;6.940;2023-02-11T22:05:09;8.13;71.14
33109;HTU21D;19481;51.118;6.940;2023-02-11T22:10:12;8.12;71.20
33109;HTU21D;19481;51.118;6.940;2023-02-11T22:15:14;7.98;71.54
33109;HTU21D;19481;51.118;6.940;2023-02-11T22:20:16;8.02;71.41
33109;HTU21D;19481;51.118;6.940;2023-02-11T22:25:19;8.06;71.41
33109;HTU21D;19481;51.118;6.940;2023-02-11T22:30:20;8.05;71.39
33109;HTU21D;19481;51.118;6.940;2023-02-11T22:35:22;8.02;71.41
33109;HTU21D;19481;51.118;6.940;2023-02-11T22:40:25;8.09;71.19
33109;HTU21D;19481;51.118;6.940;2023-02-11T22:45:27;8.06;71.37
33109;HTU21D;19481;51.118;6.940;2023-02-11T22:50:29;8.03;71.41
33109;HTU21D;19481;51.118;6.940;2023-02-11T22:55:35;8.11;71.15
33109;HTU21D;19481;51.118;6.940;2023-02-11T23:00:39;8.07;71.36
33109;HTU21D;19481;51.118;6.940;2023-02-11T23:05:41;8.07;71.45
33109;HTU21D;19481;51.118;6.940;2023-02-11T23:10:44;8.04;71.43
33109;HTU21D;19481;51.118;6.940;2023-02-11T23:15:45;8.01;71.49
33109;HTU21D;19481;51.118;6.940;2023-02-11T23:20:47;8.05;71.58
33109;HTU21D;19481;51.118;6.940;2023-02-11T23:25:50;8.06;71.38
33109;HTU21D;19481;51.118;6.940;2023-02-11T23:30:52;8.02;71.47
33109;HTU21D;19481;51.118;6.940;2023-02-11T23:35:53;8.04;71.45
33109;HTU21D;19481;51.118;6.940;2023-02-11T23:40:56;8.07;71.26
33109;HTU21D;19481;51.118;6.940;2023-02-11T23:45:58;8.04;71.35
33109;HTU21D;19481;51.118;6.940;2023-02-11T23:51:00;7.99;71.55
33109;HTU21D;19481;51.118;6.940;2023-02-11T23:56:07;8.00;71.27
